sensor_id;sensor_type;location;lat;lon;timestamp;P1;durP1;ratioP1;P2;durP2;ratioP2
4049;SDS011;2039;50.894;6.888;2023-04-07T00:01:00;87.45;;;30.65;;
4049;SDS011;2039;50.894;6.888;2023-04-07T00:03:25;87.90;;;29.37;;
4049;SDS011;2039;50.894;6.888;2023-04-07T00:05:51;85.27;;;30.10;;
4049;SDS011;2039;50.894;6.888;2023-04-07T00:08:17;89.10;;;30.80;;
4049;SDS011;2039;50.894;6.888;2023-04-07T00:10:42;85.80;;;29.37;;
4049;SDS011;2039;50.894;6.888;2023-04-07T00:13:08;81.97;;;29.90;;
4049;SDS011;2039;50.894;6.888;2023-04-07T00:15:34;83.20;;;27.33;;
4049;SDS011;2039;50.894;6.888;2023-04-07T00:17:59;82.70;;;26.73;;
4049;SDS011;2039;50.894;6.888;2023-04-07T00:20:25;84.73;;;30.77;;
4049;SDS011;2039;50.894;6.888;2023-04-07T00:22:51;82.17;;;27.70;;
4049;SDS011;2039;50.894;6.888;2023-04-07T00:25:16;84.10;;;27.07;;
4049;SDS011;2039;50.894;6.888;2023-04-07T00:27:42;85.07;;;28.90;;
4049;SDS011;2039;50.894;6.888;2023-04-07T00:30:08;83.47;;;29.13;;
4049;SDS011;2039;50.894;6.888;2023-04-07T00:32:34;85.83;;;26.60;;
4049;SDS011;2039;50.894;6.888;2023-04-07T00:35:00;84.30;;;27.93;;
4049;SDS011;2039;50.894;6.888;2023-04-07T00:37:25;83.87;;;26.40;;
4049;SDS011;2039;50.894;6.888;2023-04-07T00:39:51;82.60;;;24.17;;
4049;SDS011;2039;50.894;6.888;2023-04-07T00:42:17;80.83;;;23.37;;
4049;SDS011;2039;50.894;6.888;2023-04-07T00:44:43;82.63;;;27.40;;
4049;SDS011;2039;50.894;6.888;2023-04-07T00:47:09;83.63;;;23.30;;
4049;SDS011;2039;50.894;6.888;2023-04-07T00:49:37;85.37;;;24.17;;
4049;SDS011;2039;50.894;6.888;2023-04-07T00:52:03;81.15;;;21.75;;
4049;SDS011;2039;50.894;6.888;2023-04-07T00:54:32;82.20;;;22.50;;
4049;SDS011;2039;50.894;6.888;2023-04-07T00:56:58;79.77;;;20.17;;
4049;SDS011;2039;50.894;6.888;2023-04-07T00:59:25;78.72;;;20.30;;
4049;SDS011;2039;50.894;6.888;2023-04-07T01:02:04;79.45;;;19.88;;
4049;SDS011;2039;50.894;6.888;2023-04-07T01:04:53;78.90;;;20.38;;
4049;SDS011;2039;50.894;6.888;2023-04-07T01:07:36;83.05;;;22.23;;
4049;SDS011;2039;50.894;6.888;2023-04-07T01:13:15;85.75;;;23.52;;
4049;SDS011;2039;50.894;6.888;2023-04-07T01:15:52;81.57;;;21.77;;
4049;SDS011;2039;50.894;6.888;2023-04-07T01:18:21;78.65;;;20.70;;
4049;SDS011;2039;50.894;6.888;2023-04-07T01:21:16;79.22;;;21.10;;
4049;SDS011;2039;50.894;6.888;2023-04-07T01:26:22;81.00;;;19.98;;
4049;SDS011;2039;50.894;6.888;2023-04-07T01:28:56;81.55;;;20.85;;
4049;SDS011;2039;50.894;6.888;2023-04-07T01:31:31;82.97;;;22.30;;
4049;SDS011;2039;50.894;6.888;2023-04-07T01:33:58;82.38;;;23.13;;
4049;SDS011;2039;50.894;6.888;2023-04-07T01:36:25;79.13;;;21.55;;
4049;SDS011;2039;50.894;6.888;2023-04-07T01:38:53;84.30;;;24.27;;
4049;SDS011;2039;50.894;6.888;2023-04-07T01:41:19;89.57;;;23.33;;
4049;SDS011;2039;50.894;6.888;2023-04-07T01:43:47;80.65;;;21.02;;
4049;SDS011;2039;50.894;6.888;2023-04-07T01:46:14;81.18;;;22.85;;
4049;SDS011;2039;50.894;6.888;2023-04-07T01:48:39;82.55;;;20.40;;
4049;SDS011;2039;50.894;6.888;2023-04-07T01:51:06;84.57;;;24.83;;
4049;SDS011;2039;50.894;6.888;2023-04-07T01:53:35;84.18;;;25.65;;
4049;SDS011;2039;50.894;6.888;2023-04-07T01:56:02;86.78;;;26.80;;
4049;SDS011;2039;50.894;6.888;2023-04-07T02:00:53;86.17;;;24.27;;
4049;SDS011;2039;50.894;6.888;2023-04-07T02:03:22;88.13;;;24.13;;
4049;SDS011;2039;50.894;6.888;2023-04-07T02:05:53;87.82;;;24.33;;
4049;SDS011;2039;50.894;6.888;2023-04-07T02:08:21;85.18;;;22.63;;
4049;SDS011;2039;50.894;6.888;2023-04-07T02:10:51;89.85;;;26.92;;
4049;SDS011;2039;50.894;6.888;2023-04-07T02:13:19;90.63;;;27.80;;
4049;SDS011;2039;50.894;6.888;2023-04-07T02:15:45;89.32;;;26.20;;
4049;SDS011;2039;50.894;6.888;2023-04-07T02:18:14;93.22;;;29.08;;
4049;SDS011;2039;50.894;6.888;2023-04-07T02:20:41;91.32;;;26.67;;
4049;SDS011;2039;50.894;6.888;2023-04-07T02:23:08;91.97;;;29.50;;
4049;SDS011;2039;50.894;6.888;2023-04-07T02:25:34;98.43;;;24.83;;
4049;SDS011;2039;50.894;6.888;2023-04-07T02:28:02;94.25;;;28.10;;
4049;SDS011;2039;50.894;6.888;2023-04-07T02:30:28;94.22;;;29.60;;
4049;SDS011;2039;50.894;6.888;2023-04-07T02:32:54;100.40;;;29.10;;
4049;SDS011;2039;50.894;6.888;2023-04-07T02:35:20;93.07;;;26.77;;
4049;SDS011;2039;50.894;6.888;2023-04-07T02:37:46;97.80;;;29.10;;
4049;SDS011;2039;50.894;6.888;2023-04-07T02:40:12;94.70;;;27.70;;
4049;SDS011;2039;50.894;6.888;2023-04-07T02:42:38;94.57;;;29.73;;
4049;SDS011;2039;50.894;6.888;2023-04-07T02:45:04;93.45;;;27.38;;
4049;SDS011;2039;50.894;6.888;2023-04-07T02:47:31;94.80;;;26.38;;
4049;SDS011;2039;50.894;6.888;2023-04-07T02:49:58;91.53;;;25.40;;
4049;SDS011;2039;50.894;6.888;2023-04-07T02:52:23;95.17;;;27.20;;
4049;SDS011;2039;50.894;6.888;2023-04-07T02:54:49;98.72;;;27.80;;
4049;SDS011;2039;50.894;6.888;2023-04-07T02:57:16;96.57;;;24.98;;
4049;SDS011;2039;50.894;6.888;2023-04-07T02:59:42;94.90;;;26.00;;
4049;SDS011;2039;50.894;6.888;2023-04-07T03:02:07;97.67;;;27.13;;
4049;SDS011;2039;50.894;6.888;2023-04-07T03:04:33;96.50;;;27.30;;
4049;SDS011;2039;50.894;6.888;2023-04-07T03:07:02;98.00;;;27.90;;
4049;SDS011;2039;50.894;6.888;2023-04-07T03:09:27;103.50;;;28.83;;
4049;SDS011;2039;50.894;6.888;2023-04-07T03:11:53;101.33;;;27.70;;
4049;SDS011;2039;50.894;6.888;2023-04-07T03:14:18;100.63;;;28.97;;
4049;SDS011;2039;50.894;6.888;2023-04-07T03:16:44;104.97;;;26.97;;
4049;SDS011;2039;50.894;6.888;2023-04-07T03:19:13;100.67;;;27.50;;
4049;SDS011;2039;50.894;6.888;2023-04-07T03:21:40;99.35;;;27.40;;
4049;SDS011;2039;50.894;6.888;2023-04-07T03:24:06;96.70;;;25.70;;
4049;SDS011;2039;50.894;6.888;2023-04-07T03:26:31;98.68;;;26.88;;
4049;SDS011;2039;50.894;6.888;2023-04-07T03:28:57;102.07;;;29.70;;
4049;SDS011;2039;50.894;6.888;2023-04-07T03:31:23;96.43;;;27.83;;
4049;SDS011;2039;50.894;6.888;2023-04-07T03:33:49;105.35;;;27.83;;
4049;SDS011;2039;50.894;6.888;2023-04-07T03:36:15;101.93;;;28.77;;
4049;SDS011;2039;50.894;6.888;2023-04-07T03:38:42;102.40;;;28.92;;
4049;SDS011;2039;50.894;6.888;2023-04-07T03:41:08;102.28;;;28.20;;
4049;SDS011;2039;50.894;6.888;2023-04-07T03:43:37;99.22;;;29.20;;
4049;SDS011;2039;50.894;6.888;2023-04-07T03:46:02;100.17;;;27.23;;
4049;SDS011;2039;50.894;6.888;2023-04-07T03:48:28;103.23;;;28.53;;
4049;SDS011;2039;50.894;6.888;2023-04-07T03:50:53;103.30;;;25.00;;
4049;SDS011;2039;50.894;6.888;2023-04-07T03:53:19;102.57;;;27.40;;
4049;SDS011;2039;50.894;6.888;2023-04-07T03:55:45;104.37;;;29.00;;
4049;SDS011;2039;50.894;6.888;2023-04-07T03:58:11;102.37;;;26.70;;
4049;SDS011;2039;50.894;6.888;2023-04-07T04:00:37;101.20;;;25.95;;
4049;SDS011;2039;50.894;6.888;2023-04-07T04:03:03;104.83;;;29.47;;
4049;SDS011;2039;50.894;6.888;2023-04-07T04:05:29;94.40;;;23.30;;
4049;SDS011;2039;50.894;6.888;2023-04-07T04:07:55;96.27;;;27.20;;
4049;SDS011;2039;50.894;6.888;2023-04-07T04:10:21;101.07;;;25.60;;
4049;SDS011;2039;50.894;6.888;2023-04-07T04:12:47;98.00;;;26.60;;
4049;SDS011;2039;50.894;6.888;2023-04-07T04:15:13;100.40;;;28.38;;
4049;SDS011;2039;50.894;6.888;2023-04-07T04:17:40;103.55;;;27.95;;
4049;SDS011;2039;50.894;6.888;2023-04-07T04:20:06;105.22;;;30.52;;
4049;SDS011;2039;50.894;6.888;2023-04-07T04:22:32;99.78;;;27.05;;
4049;SDS011;2039;50.894;6.888;2023-04-07T04:24:58;105.00;;;30.57;;
4049;SDS011;2039;50.894;6.888;2023-04-07T04:27:24;99.95;;;28.35;;
4049;SDS011;2039;50.894;6.888;2023-04-07T04:29:50;103.50;;;30.17;;
4049;SDS011;2039;50.894;6.888;2023-04-07T04:32:16;111.17;;;29.57;;
4049;SDS011;2039;50.894;6.888;2023-04-07T04:34:42;101.37;;;26.50;;
4049;SDS011;2039;50.894;6.888;2023-04-07T04:37:07;103.40;;;28.13;;
4049;SDS011;2039;50.894;6.888;2023-04-07T04:39:33;101.37;;;27.67;;
4049;SDS011;2039;50.894;6.888;2023-04-07T04:41:59;100.20;;;27.10;;
4049;SDS011;2039;50.894;6.888;2023-04-07T04:44:26;99.88;;;28.65;;
4049;SDS011;2039;50.894;6.888;2023-04-07T04:46:51;100.10;;;24.50;;
4049;SDS011;2039;50.894;6.888;2023-04-07T04:49:17;96.57;;;26.17;;
4049;SDS011;2039;50.894;6.888;2023-04-07T04:51:44;100.13;;;27.77;;
4049;SDS011;2039;50.894;6.888;2023-04-07T04:54:10;96.07;;;26.58;;
4049;SDS011;2039;50.894;6.888;2023-04-07T04:56:35;102.07;;;27.07;;
4049;SDS011;2039;50.894;6.888;2023-04-07T04:59:02;96.07;;;24.27;;
4049;SDS011;2039;50.894;6.888;2023-04-07T05:01:28;97.25;;;27.92;;
4049;SDS011;2039;50.894;6.888;2023-04-07T05:03:54;101.30;;;27.45;;
4049;SDS011;2039;50.894;6.888;2023-04-07T05:06:20;96.03;;;24.27;;
4049;SDS011;2039;50.894;6.888;2023-04-07T05:08:46;97.65;;;25.95;;
4049;SDS011;2039;50.894;6.888;2023-04-07T05:11:12;100.60;;;25.07;;
4049;SDS011;2039;50.894;6.888;2023-04-07T05:13:37;99.57;;;26.00;;
4049;SDS011;2039;50.894;6.888;2023-04-07T05:16:03;93.80;;;23.93;;
4049;SDS011;2039;50.894;6.888;2023-04-07T05:18:29;99.13;;;25.33;;
4049;SDS011;2039;50.894;6.888;2023-04-07T05:20:55;90.60;;;20.47;;
4049;SDS011;2039;50.894;6.888;2023-04-07T05:23:21;97.00;;;23.30;;
4049;SDS011;2039;50.894;6.888;2023-04-07T05:25:46;96.60;;;22.93;;
4049;SDS011;2039;50.894;6.888;2023-04-07T05:28:12;93.27;;;22.87;;
4049;SDS011;2039;50.894;6.888;2023-04-07T05:30:38;98.30;;;24.77;;
4049;SDS011;2039;50.894;6.888;2023-04-07T05:33:03;94.20;;;23.27;;
4049;SDS011;2039;50.894;6.888;2023-04-07T05:35:32;102.78;;;23.60;;
4049;SDS011;2039;50.894;6.888;2023-04-07T05:37:57;98.97;;;23.47;;
4049;SDS011;2039;50.894;6.888;2023-04-07T05:40:23;95.00;;;24.20;;
4049;SDS011;2039;50.894;6.888;2023-04-07T05:42:49;96.67;;;23.30;;
4049;SDS011;2039;50.894;6.888;2023-04-07T05:45:14;95.20;;;22.80;;
4049;SDS011;2039;50.894;6.888;2023-04-07T05:47:40;100.87;;;22.23;;
4049;SDS011;2039;50.894;6.888;2023-04-07T05:50:06;101.20;;;23.30;;
4049;SDS011;2039;50.894;6.888;2023-04-07T05:52:32;99.20;;;22.23;;
4049;SDS011;2039;50.894;6.888;2023-04-07T05:54:58;94.37;;;22.83;;
4049;SDS011;2039;50.894;6.888;2023-04-07T05:57:23;94.03;;;20.70;;
4049;SDS011;2039;50.894;6.888;2023-04-07T05:59:51;93.78;;;21.63;;
4049;SDS011;2039;50.894;6.888;2023-04-07T06:02:17;94.53;;;21.50;;
4049;SDS011;2039;50.894;6.888;2023-04-07T06:04:42;93.20;;;21.10;;
4049;SDS011;2039;50.894;6.888;2023-04-07T06:07:08;93.83;;;20.20;;
4049;SDS011;2039;50.894;6.888;2023-04-07T06:09:36;94.65;;;19.17;;
4049;SDS011;2039;50.894;6.888;2023-04-07T06:12:02;89.47;;;19.73;;
4049;SDS011;2039;50.894;6.888;2023-04-07T06:14:30;92.78;;;21.67;;
4049;SDS011;2039;50.894;6.888;2023-04-07T06:16:56;92.73;;;20.77;;
4049;SDS011;2039;50.894;6.888;2023-04-07T06:19:22;93.37;;;20.17;;
4049;SDS011;2039;50.894;6.888;2023-04-07T06:21:47;89.00;;;18.40;;
4049;SDS011;2039;50.894;6.888;2023-04-07T06:24:13;87.67;;;17.83;;
4049;SDS011;2039;50.894;6.888;2023-04-07T06:26:39;88.90;;;18.57;;
4049;SDS011;2039;50.894;6.888;2023-04-07T06:29:05;86.97;;;16.52;;
4049;SDS011;2039;50.894;6.888;2023-04-07T06:31:40;82.87;;;14.67;;
4049;SDS011;2039;50.894;6.888;2023-04-07T06:34:05;85.20;;;15.98;;
4049;SDS011;2039;50.894;6.888;2023-04-07T06:36:31;81.90;;;14.40;;
4049;SDS011;2039;50.894;6.888;2023-04-07T06:38:57;84.45;;;15.75;;
4049;SDS011;2039;50.894;6.888;2023-04-07T06:41:23;88.20;;;16.83;;
4049;SDS011;2039;50.894;6.888;2023-04-07T06:43:49;81.20;;;15.10;;
4049;SDS011;2039;50.894;6.888;2023-04-07T06:46:18;84.55;;;15.75;;
4049;SDS011;2039;50.894;6.888;2023-04-07T06:48:44;84.43;;;16.17;;
4049;SDS011;2039;50.894;6.888;2023-04-07T06:51:10;83.90;;;15.80;;
4049;SDS011;2039;50.894;6.888;2023-04-07T06:53:36;84.47;;;15.40;;
4049;SDS011;2039;50.894;6.888;2023-04-07T06:56:10;81.47;;;16.20;;
4049;SDS011;2039;50.894;6.888;2023-04-07T06:58:36;81.82;;;15.20;;
4049;SDS011;2039;50.894;6.888;2023-04-07T07:01:03;81.65;;;15.98;;
4049;SDS011;2039;50.894;6.888;2023-04-07T07:03:30;85.53;;;14.52;;
4049;SDS011;2039;50.894;6.888;2023-04-07T07:05:56;81.60;;;13.77;;
4049;SDS011;2039;50.894;6.888;2023-04-07T07:08:23;78.40;;;12.55;;
4049;SDS011;2039;50.894;6.888;2023-04-07T07:10:49;83.70;;;14.80;;
4049;SDS011;2039;50.894;6.888;2023-04-07T07:13:15;79.78;;;14.50;;
4049;SDS011;2039;50.894;6.888;2023-04-07T07:15:42;79.28;;;12.90;;
4049;SDS011;2039;50.894;6.888;2023-04-07T07:18:07;78.60;;;12.20;;
4049;SDS011;2039;50.894;6.888;2023-04-07T07:20:33;81.27;;;12.90;;
4049;SDS011;2039;50.894;6.888;2023-04-07T07:22:59;78.70;;;11.40;;
4049;SDS011;2039;50.894;6.888;2023-04-07T07:25:25;97.57;;;12.43;;
4049;SDS011;2039;50.894;6.888;2023-04-07T07:27:51;82.85;;;12.68;;
4049;SDS011;2039;50.894;6.888;2023-04-07T07:30:20;81.50;;;12.93;;
4049;SDS011;2039;50.894;6.888;2023-04-07T07:32:47;75.82;;;11.68;;
4049;SDS011;2039;50.894;6.888;2023-04-07T07:35:13;76.00;;;11.87;;
4049;SDS011;2039;50.894;6.888;2023-04-07T07:37:39;81.45;;;10.57;;
4049;SDS011;2039;50.894;6.888;2023-04-07T07:40:08;75.13;;;10.27;;
4049;SDS011;2039;50.894;6.888;2023-04-07T07:42:34;74.88;;;10.20;;
4049;SDS011;2039;50.894;6.888;2023-04-07T07:44:59;76.00;;;9.60;;
4049;SDS011;2039;50.894;6.888;2023-04-07T07:47:25;73.53;;;10.30;;
4049;SDS011;2039;50.894;6.888;2023-04-07T07:49:51;73.87;;;10.57;;
4049;SDS011;2039;50.894;6.888;2023-04-07T07:52:17;80.50;;;11.70;;
4049;SDS011;2039;50.894;6.888;2023-04-07T07:54:44;73.65;;;10.75;;
4049;SDS011;2039;50.894;6.888;2023-04-07T07:57:10;74.43;;;9.80;;
4049;SDS011;2039;50.894;6.888;2023-04-07T07:59:36;73.73;;;9.67;;
4049;SDS011;2039;50.894;6.888;2023-04-07T08:02:02;73.85;;;10.18;;
4049;SDS011;2039;50.894;6.888;2023-04-07T08:04:28;72.00;;;10.23;;
4049;SDS011;2039;50.894;6.888;2023-04-07T08:06:53;71.20;;;8.87;;
4049;SDS011;2039;50.894;6.888;2023-04-07T08:09:20;76.40;;;10.05;;
4049;SDS011;2039;50.894;6.888;2023-04-07T08:11:46;77.38;;;10.25;;
4049;SDS011;2039;50.894;6.888;2023-04-07T08:14:15;72.95;;;9.48;;
4049;SDS011;2039;50.894;6.888;2023-04-07T08:16:41;72.45;;;10.52;;
4049;SDS011;2039;50.894;6.888;2023-04-07T08:19:07;72.43;;;10.80;;
4049;SDS011;2039;50.894;6.888;2023-04-07T08:21:33;73.90;;;10.75;;
4049;SDS011;2039;50.894;6.888;2023-04-07T08:23:59;74.33;;;11.00;;
4049;SDS011;2039;50.894;6.888;2023-04-07T08:26:25;75.27;;;10.97;;
4049;SDS011;2039;50.894;6.888;2023-04-07T08:28:51;74.90;;;10.73;;
4049;SDS011;2039;50.894;6.888;2023-04-07T08:31:17;77.22;;;10.40;;
4049;SDS011;2039;50.894;6.888;2023-04-07T08:33:43;71.45;;;9.07;;
4049;SDS011;2039;50.894;6.888;2023-04-07T08:36:09;73.78;;;10.07;;
4049;SDS011;2039;50.894;6.888;2023-04-07T08:38:35;75.25;;;10.52;;
4049;SDS011;2039;50.894;6.888;2023-04-07T08:41:02;73.68;;;9.65;;
4049;SDS011;2039;50.894;6.888;2023-04-07T08:43:32;73.07;;;9.93;;
4049;SDS011;2039;50.894;6.888;2023-04-07T08:46:01;74.38;;;10.57;;
4049;SDS011;2039;50.894;6.888;2023-04-07T08:48:27;72.75;;;9.07;;
4049;SDS011;2039;50.894;6.888;2023-04-07T08:50:58;75.80;;;10.05;;
4049;SDS011;2039;50.894;6.888;2023-04-07T08:53:35;72.97;;;10.00;;
4049;SDS011;2039;50.894;6.888;2023-04-07T08:56:07;71.57;;;9.60;;
4049;SDS011;2039;50.894;6.888;2023-04-07T08:58:35;72.05;;;9.35;;
4049;SDS011;2039;50.894;6.888;2023-04-07T09:01:04;75.03;;;9.60;;
4049;SDS011;2039;50.894;6.888;2023-04-07T09:03:33;73.60;;;9.60;;
4049;SDS011;2039;50.894;6.888;2023-04-07T09:05:59;72.40;;;8.90;;
4049;SDS011;2039;50.894;6.888;2023-04-07T09:08:26;75.28;;;11.20;;
4049;SDS011;2039;50.894;6.888;2023-04-07T09:10:52;79.05;;;12.02;;
4049;SDS011;2039;50.894;6.888;2023-04-07T09:13:19;72.63;;;10.88;;
4049;SDS011;2039;50.894;6.888;2023-04-07T09:15:45;76.80;;;13.33;;
4049;SDS011;2039;50.894;6.888;2023-04-07T09:18:10;80.83;;;12.53;;
4049;SDS011;2039;50.894;6.888;2023-04-07T09:21:10;75.05;;;12.27;;
4049;SDS011;2039;50.894;6.888;2023-04-07T09:23:30;76.00;;;12.88;;
4049;SDS011;2039;50.894;6.888;2023-04-07T09:25:57;73.38;;;10.85;;
4049;SDS011;2039;50.894;6.888;2023-04-07T09:28:41;79.70;;;12.15;;
4049;SDS011;2039;50.894;6.888;2023-04-07T09:31:12;79.82;;;10.52;;
4049;SDS011;2039;50.894;6.888;2023-04-07T09:33:38;80.60;;;10.48;;
4049;SDS011;2039;50.894;6.888;2023-04-07T09:36:04;74.07;;;9.10;;
4049;SDS011;2039;50.894;6.888;2023-04-07T09:38:31;73.75;;;11.73;;
4049;SDS011;2039;50.894;6.888;2023-04-07T09:41:05;80.90;;;10.65;;
4049;SDS011;2039;50.894;6.888;2023-04-07T09:43:32;73.20;;;9.43;;
4049;SDS011;2039;50.894;6.888;2023-04-07T09:46:10;74.50;;;10.70;;
4049;SDS011;2039;50.894;6.888;2023-04-07T09:48:40;76.95;;;9.95;;
4049;SDS011;2039;50.894;6.888;2023-04-07T09:53:43;75.60;;;11.02;;
4049;SDS011;2039;50.894;6.888;2023-04-07T09:56:16;73.88;;;10.43;;
4049;SDS011;2039;50.894;6.888;2023-04-07T09:58:44;75.38;;;12.30;;
4049;SDS011;2039;50.894;6.888;2023-04-07T10:01:11;73.63;;;10.95;;
4049;SDS011;2039;50.894;6.888;2023-04-07T10:03:38;75.18;;;11.25;;
4049;SDS011;2039;50.894;6.888;2023-04-07T10:06:05;76.22;;;11.65;;
4049;SDS011;2039;50.894;6.888;2023-04-07T10:08:32;78.95;;;10.73;;
4049;SDS011;2039;50.894;6.888;2023-04-07T10:11:00;77.72;;;12.25;;
4049;SDS011;2039;50.894;6.888;2023-04-07T10:13:33;77.10;;;9.98;;
4049;SDS011;2039;50.894;6.888;2023-04-07T10:16:04;75.22;;;10.43;;
4049;SDS011;2039;50.894;6.888;2023-04-07T10:18:34;76.35;;;10.23;;
4049;SDS011;2039;50.894;6.888;2023-04-07T10:21:01;81.32;;;12.52;;
4049;SDS011;2039;50.894;6.888;2023-04-07T10:26:32;79.57;;;12.52;;
4049;SDS011;2039;50.894;6.888;2023-04-07T10:29:01;77.68;;;13.10;;
4049;SDS011;2039;50.894;6.888;2023-04-07T10:31:30;80.57;;;14.32;;
4049;SDS011;2039;50.894;6.888;2023-04-07T10:33:57;81.25;;;14.93;;
4049;SDS011;2039;50.894;6.888;2023-04-07T10:36:23;78.67;;;14.50;;
4049;SDS011;2039;50.894;6.888;2023-04-07T10:41:36;79.18;;;14.20;;
4049;SDS011;2039;50.894;6.888;2023-04-07T10:44:03;81.78;;;15.95;;
4049;SDS011;2039;50.894;6.888;2023-04-07T10:49:21;81.75;;;16.40;;
4049;SDS011;2039;50.894;6.888;2023-04-07T10:54:37;81.97;;;17.10;;
4049;SDS011;2039;50.894;6.888;2023-04-07T10:57:13;79.60;;;14.40;;
4049;SDS011;2039;50.894;6.888;2023-04-07T11:02:39;79.78;;;16.58;;
4049;SDS011;2039;50.894;6.888;2023-04-07T11:05:05;83.85;;;17.00;;
4049;SDS011;2039;50.894;6.888;2023-04-07T11:07:45;84.53;;;18.02;;
4049;SDS011;2039;50.894;6.888;2023-04-07T11:10:14;82.40;;;17.10;;
4049;SDS011;2039;50.894;6.888;2023-04-07T11:12:41;84.55;;;16.52;;
4049;SDS011;2039;50.894;6.888;2023-04-07T11:15:20;84.60;;;17.30;;
4049;SDS011;2039;50.894;6.888;2023-04-07T11:17:46;84.10;;;18.92;;
4049;SDS011;2039;50.894;6.888;2023-04-07T11:20:42;87.47;;;20.55;;
4049;SDS011;2039;50.894;6.888;2023-04-07T11:23:27;84.15;;;15.23;;
4049;SDS011;2039;50.894;6.888;2023-04-07T11:25:59;85.80;;;14.90;;
4049;SDS011;2039;50.894;6.888;2023-04-07T11:28:27;86.32;;;16.80;;
4049;SDS011;2039;50.894;6.888;2023-04-07T11:30:53;84.03;;;17.25;;
4049;SDS011;2039;50.894;6.888;2023-04-07T11:33:21;84.97;;;17.40;;
4049;SDS011;2039;50.894;6.888;2023-04-07T11:35:58;87.78;;;17.83;;
4049;SDS011;2039;50.894;6.888;2023-04-07T11:38:28;85.90;;;15.40;;
4049;SDS011;2039;50.894;6.888;2023-04-07T11:41:08;82.15;;;16.25;;
4049;SDS011;2039;50.894;6.888;2023-04-07T11:43:35;84.97;;;18.20;;
4049;SDS011;2039;50.894;6.888;2023-04-07T11:46:04;81.85;;;16.38;;
4049;SDS011;2039;50.894;6.888;2023-04-07T11:48:38;79.10;;;16.70;;
4049;SDS011;2039;50.894;6.888;2023-04-07T11:51:06;86.65;;;18.23;;
4049;SDS011;2039;50.894;6.888;2023-04-07T11:53:40;78.35;;;15.80;;
4049;SDS011;2039;50.894;6.888;2023-04-07T11:56:07;78.50;;;13.03;;
4049;SDS011;2039;50.894;6.888;2023-04-07T12:01:19;77.55;;;11.10;;
4049;SDS011;2039;50.894;6.888;2023-04-07T12:03:56;81.35;;;14.13;;
4049;SDS011;2039;50.894;6.888;2023-04-07T12:06:30;80.95;;;13.15;;
4049;SDS011;2039;50.894;6.888;2023-04-07T12:09:02;80.13;;;14.20;;
4049;SDS011;2039;50.894;6.888;2023-04-07T12:11:29;79.50;;;12.82;;
4049;SDS011;2039;50.894;6.888;2023-04-07T12:13:56;86.53;;;15.25;;
4049;SDS011;2039;50.894;6.888;2023-04-07T12:16:23;79.70;;;13.88;;
4049;SDS011;2039;50.894;6.888;2023-04-07T12:18:49;81.38;;;13.50;;
4049;SDS011;2039;50.894;6.888;2023-04-07T12:21:18;81.65;;;14.07;;
4049;SDS011;2039;50.894;6.888;2023-04-07T12:23:44;86.45;;;14.23;;
4049;SDS011;2039;50.894;6.888;2023-04-07T12:26:11;78.38;;;12.73;;
4049;SDS011;2039;50.894;6.888;2023-04-07T12:28:37;79.80;;;13.40;;
4049;SDS011;2039;50.894;6.888;2023-04-07T12:31:03;90.53;;;15.00;;
4049;SDS011;2039;50.894;6.888;2023-04-07T12:33:29;81.88;;;13.68;;
4049;SDS011;2039;50.894;6.888;2023-04-07T12:35:56;82.28;;;14.40;;
4049;SDS011;2039;50.894;6.888;2023-04-07T12:38:22;80.22;;;14.60;;
4049;SDS011;2039;50.894;6.888;2023-04-07T12:40:47;80.23;;;14.20;;
4049;SDS011;2039;50.894;6.888;2023-04-07T12:43:13;82.00;;;13.93;;
4049;SDS011;2039;50.894;6.888;2023-04-07T12:45:39;79.20;;;13.93;;
4049;SDS011;2039;50.894;6.888;2023-04-07T12:48:04;82.60;;;13.63;;
4049;SDS011;2039;50.894;6.888;2023-04-07T12:50:30;79.93;;;13.03;;
4049;SDS011;2039;50.894;6.888;2023-04-07T12:52:56;81.40;;;14.10;;
4049;SDS011;2039;50.894;6.888;2023-04-07T12:55:27;80.25;;;13.25;;
4049;SDS011;2039;50.894;6.888;2023-04-07T12:57:54;83.93;;;15.25;;
4049;SDS011;2039;50.894;6.888;2023-04-07T13:00:20;84.90;;;14.93;;
4049;SDS011;2039;50.894;6.888;2023-04-07T13:02:45;88.70;;;15.47;;
4049;SDS011;2039;50.894;6.888;2023-04-07T13:05:12;89.53;;;16.40;;
4049;SDS011;2039;50.894;6.888;2023-04-07T13:07:37;89.63;;;16.80;;
4049;SDS011;2039;50.894;6.888;2023-04-07T13:10:03;84.77;;;15.07;;
4049;SDS011;2039;50.894;6.888;2023-04-07T13:12:32;92.03;;;17.67;;
4049;SDS011;2039;50.894;6.888;2023-04-07T13:14:58;84.30;;;16.58;;
4049;SDS011;2039;50.894;6.888;2023-04-07T13:17:23;84.90;;;18.30;;
4049;SDS011;2039;50.894;6.888;2023-04-07T13:19:49;81.67;;;17.20;;
4049;SDS011;2039;50.894;6.888;2023-04-07T13:22:15;84.23;;;18.57;;
4049;SDS011;2039;50.894;6.888;2023-04-07T13:24:41;82.03;;;19.52;;
4049;SDS011;2039;50.894;6.888;2023-04-07T13:27:07;85.60;;;18.87;;
4049;SDS011;2039;50.894;6.888;2023-04-07T13:29:33;87.43;;;23.10;;
4049;SDS011;2039;50.894;6.888;2023-04-07T13:32:08;83.73;;;20.00;;
4049;SDS011;2039;50.894;6.888;2023-04-07T13:34:37;79.07;;;17.73;;
4049;SDS011;2039;50.894;6.888;2023-04-07T13:37:06;80.60;;;15.70;;
4049;SDS011;2039;50.894;6.888;2023-04-07T13:39:31;79.70;;;13.63;;
4049;SDS011;2039;50.894;6.888;2023-04-07T13:41:58;79.38;;;12.35;;
4049;SDS011;2039;50.894;6.888;2023-04-07T13:44:24;79.70;;;12.00;;
4049;SDS011;2039;50.894;6.888;2023-04-07T13:46:50;77.07;;;11.27;;
4049;SDS011;2039;50.894;6.888;2023-04-07T13:49:16;76.10;;;11.55;;
4049;SDS011;2039;50.894;6.888;2023-04-07T13:51:42;77.00;;;12.03;;
4049;SDS011;2039;50.894;6.888;2023-04-07T13:54:07;82.27;;;11.57;;
4049;SDS011;2039;50.894;6.888;2023-04-07T13:56:33;75.30;;;11.27;;
4049;SDS011;2039;50.894;6.888;2023-04-07T13:59:00;75.90;;;11.18;;
4049;SDS011;2039;50.894;6.888;2023-04-07T14:01:26;78.68;;;11.43;;
4049;SDS011;2039;50.894;6.888;2023-04-07T14:03:54;77.35;;;11.77;;
4049;SDS011;2039;50.894;6.888;2023-04-07T14:06:21;79.18;;;11.63;;
4049;SDS011;2039;50.894;6.888;2023-04-07T14:08:47;75.67;;;11.80;;
4049;SDS011;2039;50.894;6.888;2023-04-07T14:11:19;75.63;;;12.25;;
4049;SDS011;2039;50.894;6.888;2023-04-07T14:13:49;75.47;;;11.07;;
4049;SDS011;2039;50.894;6.888;2023-04-07T14:16:16;76.10;;;9.07;;
4049;SDS011;2039;50.894;6.888;2023-04-07T14:18:42;75.28;;;10.90;;
4049;SDS011;2039;50.894;6.888;2023-04-07T14:21:08;80.57;;;12.35;;
4049;SDS011;2039;50.894;6.888;2023-04-07T14:23:40;75.15;;;10.20;;
4049;SDS011;2039;50.894;6.888;2023-04-07T14:26:09;78.20;;;10.45;;
4049;SDS011;2039;50.894;6.888;2023-04-07T14:28:36;76.97;;;9.77;;
4049;SDS011;2039;50.894;6.888;2023-04-07T14:31:01;74.40;;;9.93;;
4049;SDS011;2039;50.894;6.888;2023-04-07T14:33:27;77.13;;;10.18;;
4049;SDS011;2039;50.894;6.888;2023-04-07T14:35:53;78.10;;;9.37;;
4049;SDS011;2039;50.894;6.888;2023-04-07T14:38:19;81.10;;;11.17;;
4049;SDS011;2039;50.894;6.888;2023-04-07T14:40:50;74.93;;;9.45;;
4049;SDS011;2039;50.894;6.888;2023-04-07T14:43:16;71.38;;;9.23;;
4049;SDS011;2039;50.894;6.888;2023-04-07T14:45:42;75.77;;;9.93;;
4049;SDS011;2039;50.894;6.888;2023-04-07T14:48:09;76.35;;;10.90;;
4049;SDS011;2039;50.894;6.888;2023-04-07T14:50:35;73.03;;;9.60;;
4049;SDS011;2039;50.894;6.888;2023-04-07T14:53:01;73.68;;;9.98;;
4049;SDS011;2039;50.894;6.888;2023-04-07T14:55:27;75.72;;;9.10;;
4049;SDS011;2039;50.894;6.888;2023-04-07T14:57:54;73.72;;;9.95;;
4049;SDS011;2039;50.894;6.888;2023-04-07T15:00:20;77.53;;;10.13;;
4049;SDS011;2039;50.894;6.888;2023-04-07T15:02:46;73.37;;;9.83;;
4049;SDS011;2039;50.894;6.888;2023-04-07T15:05:12;84.33;;;11.87;;
4049;SDS011;2039;50.894;6.888;2023-04-07T15:07:40;73.35;;;10.52;;
4049;SDS011;2039;50.894;6.888;2023-04-07T15:10:06;72.47;;;9.73;;
4049;SDS011;2039;50.894;6.888;2023-04-07T15:12:32;84.10;;;13.10;;
4049;SDS011;2039;50.894;6.888;2023-04-07T15:14:58;74.37;;;10.60;;
4049;SDS011;2039;50.894;6.888;2023-04-07T15:17:23;78.40;;;12.10;;